createdAt,value
2023-05-01T00:01:06.202Z,1.90
2023-05-01T00:03:35.011Z,2.10
2023-05-01T00:06:05.925Z,2.50
2023-05-01T00:08:34.184Z,2.58
2023-05-01T00:11:04.266Z,2.28
2023-05-01T00:13:32.545Z,2.33
2023-05-01T00:16:08.604Z,1.77
2023-05-01T00:18:36.917Z,3.65
2023-05-01T00:21:05.347Z,2.90
2023-05-01T00:23:33.771Z,2.40
2023-05-01T00:26:01.969Z,2.45
2023-05-01T00:28:30.154Z,2.10
2023-05-01T00:30:58.821Z,1.83
2023-05-01T00:33:28.376Z,1.55
2023-05-01T00:35:56.864Z,2.42
2023-05-01T00:38:25.236Z,2.88
2023-05-01T00:40:53.422Z,1.90
2023-05-01T00:43:22.476Z,1.80
2023-05-01T00:45:51.044Z,1.90
2023-05-01T00:48:19.423Z,1.77
2023-05-01T00:50:50.122Z,1.85
2023-05-01T00:53:19.088Z,1.25
2023-05-01T00:55:48.218Z,1.30
2023-05-01T00:58:19.534Z,1.50
2023-05-01T01:00:47.748Z,1.73
2023-05-01T01:03:16.576Z,1.38
2023-05-01T01:05:52.929Z,1.48
2023-05-01T01:08:28.330Z,1.73
2023-05-01T01:11:05.778Z,1.60
2023-05-01T01:13:38.600Z,1.95
2023-05-01T01:16:19.312Z,1.35
2023-05-01T01:18:52.976Z,1.38
2023-05-01T01:21:28.556Z,2.10
2023-05-01T01:24:37.162Z,3.17
2023-05-01T01:27:55.860Z,3.40
2023-05-01T01:30:54.085Z,1.98
2023-05-01T01:33:50.397Z,2.15
2023-05-01T01:36:22.423Z,2.20
2023-05-01T01:38:57.734Z,1.48
2023-05-01T01:41:31.403Z,1.73
2023-05-01T01:44:07.613Z,1.25
2023-05-01T01:46:40.632Z,1.48
2023-05-01T01:49:16.627Z,1.33
2023-05-01T01:51:48.252Z,1.40
2023-05-01T01:54:20.393Z,1.73
2023-05-01T01:56:51.231Z,1.17
2023-05-01T01:59:21.294Z,1.48
2023-05-01T02:01:51.163Z,1.35
2023-05-01T02:04:22.586Z,1.13
2023-05-01T02:06:52.387Z,1.67
2023-05-01T02:09:22.681Z,1.17
2023-05-01T02:11:52.004Z,1.42
2023-05-01T02:14:23.828Z,1.50
2023-05-01T02:16:53.440Z,0.93
2023-05-01T02:19:25.226Z,0.90
2023-05-01T02:21:55.148Z,1.25
2023-05-01T02:24:25.921Z,1.90
2023-05-01T02:26:59.515Z,2.50
2023-05-01T02:29:28.641Z,2.10
2023-05-01T02:31:57.088Z,2.67
2023-05-01T02:34:27.431Z,1.95
2023-05-01T02:36:55.667Z,2.10
2023-05-01T02:39:24.580Z,2.75
2023-05-01T02:41:56.079Z,3.28
2023-05-01T02:44:25.684Z,2.03
2023-05-01T02:46:56.405Z,1.92
2023-05-01T02:49:26.692Z,1.60
2023-05-01T02:51:55.166Z,2.22
2023-05-01T02:54:23.710Z,1.88
2023-05-01T02:56:52.781Z,2.10
2023-05-01T02:59:21.096Z,2.10
2023-05-01T03:01:49.360Z,2.10
2023-05-01T03:04:17.600Z,2.40
2023-05-01T03:06:47.278Z,3.10
2023-05-01T03:09:15.494Z,2.33
2023-05-01T03:11:43.657Z,1.98
2023-05-01T03:14:12.196Z,2.10
2023-05-01T03:16:40.516Z,2.47
2023-05-01T03:19:08.773Z,2.20
2023-05-01T03:21:37.029Z,2.90
2023-05-01T03:24:08.042Z,2.30
2023-05-01T03:26:36.208Z,2.47
2023-05-01T03:29:04.410Z,2.72
2023-05-01T03:31:32.780Z,1.95
2023-05-01T03:34:01.422Z,3.20
2023-05-01T03:36:29.752Z,3.20
2023-05-01T03:38:58.028Z,2.53
2023-05-01T03:42:02.451Z,2.03
2023-05-01T03:44:35.645Z,1.60
2023-05-01T03:47:03.897Z,1.40
2023-05-01T03:49:32.581Z,1.90
2023-05-01T03:52:00.830Z,1.85
2023-05-01T03:54:29.059Z,1.33
2023-05-01T03:57:04.915Z,1.48
2023-05-01T03:59:33.520Z,1.10
2023-05-01T04:02:01.741Z,1.20
2023-05-01T04:04:33.239Z,1.63
2023-05-01T04:07:01.988Z,3.47
2023-05-01T04:09:30.852Z,3.28
2023-05-01T04:11:59.909Z,2.35
2023-05-01T04:14:29.973Z,2.20
2023-05-01T04:16:59.465Z,1.83
2023-05-01T04:19:29.481Z,1.70
2023-05-01T04:22:00.094Z,1.33
2023-05-01T04:24:28.321Z,1.70
2023-05-01T04:26:56.474Z,1.92
2023-05-01T04:29:24.708Z,1.83
2023-05-01T04:31:54.753Z,2.08
2023-05-01T04:34:23.082Z,2.10
2023-05-01T04:36:51.890Z,1.95
2023-05-01T04:39:20.216Z,1.65
2023-05-01T04:41:48.664Z,1.63
2023-05-01T04:44:17.323Z,1.85
2023-05-01T04:46:49.186Z,1.48
2023-05-01T04:49:18.874Z,1.77
2023-05-01T04:51:47.167Z,1.42
2023-05-01T04:54:17.249Z,2.00
2023-05-01T04:56:45.575Z,1.52
2023-05-01T04:59:14.140Z,1.75
2023-05-01T05:01:42.430Z,1.50
2023-05-01T05:04:11.274Z,1.90
2023-05-01T05:06:40.962Z,2.22
2023-05-01T05:09:17.458Z,1.95
2023-05-01T05:11:47.704Z,1.85
2023-05-01T05:14:22.283Z,2.20
2023-05-01T05:16:50.899Z,2.08
2023-05-01T05:19:19.444Z,1.98
2023-05-01T05:21:49.111Z,2.90
2023-05-01T05:24:17.955Z,2.00
2023-05-01T05:26:46.172Z,2.42
2023-05-01T05:29:14.568Z,2.53
2023-05-01T05:31:43.569Z,2.33
2023-05-01T05:34:12.467Z,2.25
2023-05-01T05:36:40.741Z,2.50
2023-05-01T05:39:10.640Z,2.30
2023-05-01T05:41:39.145Z,2.40
2023-05-01T05:44:07.489Z,2.00
2023-05-01T05:46:36.182Z,2.53
2023-05-01T05:49:04.559Z,2.65
2023-05-01T05:51:32.949Z,2.70
2023-05-01T05:54:04.647Z,2.70
2023-05-01T05:56:37.562Z,2.65
2023-05-01T05:59:06.493Z,2.70
2023-05-01T06:01:34.765Z,2.67
2023-05-01T06:04:03.087Z,2.58
2023-05-01T06:06:34.174Z,2.55
2023-05-01T06:09:02.762Z,2.75
2023-05-01T06:11:31.324Z,2.75
2023-05-01T06:14:02.678Z,2.63
2023-05-01T06:16:31.287Z,3.40
2023-05-01T06:18:59.646Z,2.85
2023-05-01T06:21:27.894Z,3.00
2023-05-01T06:23:56.147Z,2.85
2023-05-01T06:26:28.121Z,2.80
2023-05-01T06:28:56.488Z,2.60
2023-05-01T06:31:29.649Z,2.72
2023-05-01T06:33:58.805Z,2.70
2023-05-01T06:36:34.443Z,2.63
2023-05-01T06:39:03.427Z,2.50
2023-05-01T06:41:32.838Z,2.70
2023-05-01T06:44:01.139Z,1.95
2023-05-01T06:46:30.790Z,2.53
2023-05-01T06:48:59.005Z,2.15
2023-05-01T06:51:27.989Z,2.38
2023-05-01T06:53:56.248Z,2.30
2023-05-01T06:56:24.474Z,1.90
2023-05-01T06:58:53.104Z,2.38
2023-05-01T07:01:21.580Z,2.25
2023-05-01T07:03:51.364Z,2.00
2023-05-01T07:06:19.610Z,2.33
2023-05-01T07:08:47.921Z,2.10
2023-05-01T07:11:16.129Z,2.53
2023-05-01T07:13:44.428Z,1.70
2023-05-01T07:16:12.678Z,1.73
2023-05-01T07:18:42.303Z,2.35
2023-05-01T07:21:12.065Z,1.88
2023-05-01T07:23:40.538Z,2.05
2023-05-01T07:26:08.908Z,1.77
2023-05-01T07:28:37.152Z,2.47
2023-05-01T07:31:05.848Z,1.55
2023-05-01T07:33:34.218Z,1.65
2023-05-01T07:36:03.088Z,1.98
2023-05-01T07:38:32.668Z,2.17
2023-05-01T07:41:00.889Z,1.92
2023-05-01T07:43:29.132Z,2.13
2023-05-01T07:45:58.820Z,1.90
2023-05-01T07:48:28.194Z,1.92
2023-05-01T07:50:56.933Z,1.58
2023-05-01T07:53:28.062Z,1.73
2023-05-01T07:56:06.188Z,2.22
2023-05-01T07:58:34.458Z,1.90
2023-05-01T08:01:02.684Z,1.60
2023-05-01T08:03:31.294Z,1.70
2023-05-01T08:06:01.778Z,1.60
2023-05-01T08:08:30.037Z,1.60
2023-05-01T08:11:01.646Z,2.30
2023-05-01T08:13:29.821Z,1.60
2023-05-01T08:16:02.434Z,1.42
2023-05-01T08:18:31.142Z,1.75
2023-05-01T08:20:59.310Z,1.85
2023-05-01T08:23:30.288Z,1.90
2023-05-01T08:25:59.852Z,1.70
2023-05-01T08:28:28.066Z,1.38
2023-05-01T08:30:56.302Z,1.67
2023-05-01T08:33:24.507Z,1.88
2023-05-01T08:35:53.933Z,2.72
2023-05-01T08:38:22.089Z,1.42
2023-05-01T08:40:53.575Z,1.83
2023-05-01T08:43:24.417Z,2.10
2023-05-01T08:45:55.447Z,2.00
2023-05-01T08:48:25.466Z,1.63
2023-05-01T08:50:56.900Z,1.70
2023-05-01T08:53:26.413Z,1.88
2023-05-01T08:55:56.506Z,1.75
2023-05-01T08:58:30.046Z,2.17
2023-05-01T09:01:01.166Z,2.08
2023-05-01T09:03:32.755Z,1.83
2023-05-01T09:06:03.700Z,1.83
2023-05-01T09:08:31.901Z,1.98
2023-05-01T09:11:01.577Z,2.38
2023-05-01T09:13:31.826Z,1.92
2023-05-01T09:16:00.638Z,2.13
2023-05-01T09:18:28.983Z,1.88
2023-05-01T09:20:57.194Z,1.80
2023-05-01T09:23:26.335Z,2.17
2023-05-01T09:25:54.980Z,1.83
2023-05-01T09:28:42.896Z,1.63
2023-05-01T09:31:22.891Z,2.13
2023-05-01T09:33:55.490Z,2.00
2023-05-01T09:36:25.433Z,2.40
2023-05-01T09:38:53.933Z,1.48
2023-05-01T09:41:22.387Z,2.10
2023-05-01T09:43:53.467Z,2.15
2023-05-01T09:46:22.780Z,2.13
2023-05-01T09:48:55.553Z,2.40
2023-05-01T09:51:28.253Z,2.58
2023-05-01T09:53:57.989Z,2.53
2023-05-01T09:56:27.361Z,2.20
2023-05-01T09:58:58.923Z,2.67
2023-05-01T10:01:40.528Z,2.45
2023-05-01T10:04:10.054Z,2.78
2023-05-01T10:06:39.024Z,2.97
